createdAt,value
2018-03-08T00:01:11.485Z,71.10
2018-03-08T00:03:37.981Z,69.30
2018-03-08T00:06:04.513Z,69.20
2018-03-08T00:08:31.042Z,68.60
2018-03-08T00:10:57.615Z,69.30
2018-03-08T00:13:24.113Z,69.20
2018-03-08T00:15:50.670Z,68.60
2018-03-08T00:18:17.170Z,68.80
2018-03-08T00:20:43.720Z,68.50
2018-03-08T00:23:10.239Z,67.80
2018-03-08T00:25:36.763Z,67.90
2018-03-08T00:28:03.258Z,68.60
2018-03-08T00:30:30.501Z,69.80
2018-03-08T00:32:57.101Z,69.80
2018-03-08T00:35:23.553Z,70.20
2018-03-08T00:37:50.063Z,70.30
2018-03-08T00:40:16.566Z,70.70
2018-03-08T00:42:43.088Z,70.80
2018-03-08T00:45:09.597Z,70.90
2018-03-08T00:47:36.070Z,71.10
2018-03-08T00:50:02.586Z,71.20
2018-03-08T00:52:29.838Z,71.20
2018-03-08T00:54:57.118Z,71.30
2018-03-08T00:57:24.357Z,71.20
2018-03-08T00:59:51.619Z,71.10
2018-03-08T01:02:18.110Z,71.10
2018-03-08T01:04:44.605Z,71.10
2018-03-08T01:07:11.125Z,70.80
2018-03-08T01:09:37.634Z,70.90
2018-03-08T01:12:04.119Z,70.60
2018-03-08T01:14:30.718Z,70.60
2018-03-08T01:16:57.210Z,70.50
2018-03-08T01:19:23.786Z,70.50
2018-03-08T01:21:50.314Z,70.30
2018-03-08T01:24:17.608Z,70.30
2018-03-08T01:26:44.104Z,70.20
2018-03-08T01:29:10.616Z,70.50
2018-03-08T01:31:37.140Z,70.40
2018-03-08T01:34:03.667Z,70.10
2018-03-08T01:36:30.172Z,70.10
2018-03-08T01:38:56.660Z,70.10
2018-03-08T01:41:23.206Z,70.20
2018-03-08T01:43:49.692Z,70.20
2018-03-08T01:46:16.181Z,70.50
2018-03-08T01:48:42.719Z,70.60
2018-03-08T01:51:09.267Z,70.70
2018-03-08T01:53:36.545Z,70.20
2018-03-08T01:56:03.053Z,70.10
2018-03-08T01:58:30.857Z,70.20
2018-03-08T02:00:58.165Z,70.10
2018-03-08T02:03:25.553Z,70.60
2018-03-08T02:05:52.074Z,70.50
2018-03-08T02:08:19.344Z,70.00
2018-03-08T02:10:45.912Z,70.00
2018-03-08T02:13:12.433Z,70.00
2018-03-08T02:15:38.941Z,70.00
2018-03-08T02:18:05.433Z,69.60
2018-03-08T02:20:31.914Z,70.00
2018-03-08T02:22:58.440Z,70.20
2018-03-08T02:25:24.984Z,69.30
2018-03-08T02:27:51.476Z,69.00
2018-03-08T02:30:17.964Z,68.90
2018-03-08T02:32:44.449Z,68.70
2018-03-08T02:35:10.966Z,68.80
2018-03-08T02:37:37.460Z,68.60
2018-03-08T02:40:03.975Z,68.20
2018-03-08T02:42:30.476Z,67.80
2018-03-08T02:44:57.071Z,67.70
2018-03-08T02:47:23.598Z,68.10
2018-03-08T02:49:50.085Z,68.00
2018-03-08T02:52:16.602Z,68.00
2018-03-08T02:54:43.093Z,68.30
2018-03-08T02:57:10.306Z,66.80
2018-03-08T02:59:37.535Z,66.20
2018-03-08T03:02:04.037Z,66.20
2018-03-08T03:04:30.610Z,65.90
2018-03-08T03:06:57.841Z,65.30
2018-03-08T03:09:24.317Z,65.60
2018-03-08T03:11:50.837Z,65.20
2018-03-08T03:14:17.332Z,65.40
2018-03-08T03:16:43.830Z,65.50
2018-03-08T03:19:11.080Z,67.70
2018-03-08T03:21:38.368Z,67.90
2018-03-08T03:24:04.873Z,67.90
2018-03-08T03:26:31.395Z,68.50
2018-03-08T03:28:57.892Z,68.90
2018-03-08T03:31:24.392Z,69.30
2018-03-08T03:33:50.889Z,69.40
2018-03-08T03:36:17.436Z,69.60
2018-03-08T03:38:43.949Z,70.20
2018-03-08T03:41:10.445Z,71.00
2018-03-08T03:43:37.693Z,73.50
2018-03-08T03:46:04.933Z,75.40
2018-03-08T03:48:31.409Z,75.30
2018-03-08T03:50:57.914Z,76.20
2018-03-08T03:53:24.412Z,76.70
2018-03-08T03:55:51.641Z,77.00
2018-03-08T03:58:18.147Z,76.80
2018-03-08T04:00:44.684Z,77.00
2018-03-08T04:03:11.910Z,77.30
2018-03-08T04:05:38.459Z,76.50
2018-03-08T04:08:05.797Z,76.50
2018-03-08T04:10:32.278Z,76.50
2018-03-08T04:12:58.772Z,76.50
2018-03-08T04:15:25.341Z,76.50
2018-03-08T04:17:51.838Z,76.40
2018-03-08T04:20:18.345Z,75.10
2018-03-08T04:22:44.827Z,75.30
2018-03-08T04:25:12.117Z,75.70
2018-03-08T04:27:38.635Z,75.70
2018-03-08T04:30:05.901Z,75.50
2018-03-08T04:32:32.408Z,75.40
2018-03-08T04:34:59.059Z,75.60
2018-03-08T04:37:25.568Z,75.90
2018-03-08T04:39:52.850Z,76.40
2018-03-08T04:42:19.393Z,76.40
2018-03-08T04:44:45.921Z,76.90
2018-03-08T04:47:12.442Z,76.90
2018-03-08T04:49:38.982Z,77.20
2018-03-08T04:52:05.500Z,77.10
2018-03-08T04:54:31.994Z,77.20
2018-03-08T04:56:58.700Z,77.30
2018-03-08T04:59:25.222Z,77.60
2018-03-08T05:01:51.796Z,78.00
2018-03-08T05:04:18.361Z,77.70
2018-03-08T05:06:44.907Z,77.50
2018-03-08T05:09:11.426Z,78.10
2018-03-08T05:11:38.662Z,78.50
2018-03-08T05:14:05.141Z,78.40
2018-03-08T05:16:32.376Z,78.90
2018-03-08T05:18:58.879Z,78.80
2018-03-08T05:21:25.384Z,79.00
2018-03-08T05:23:51.854Z,79.10
2018-03-08T05:26:18.363Z,79.20
2018-03-08T05:28:45.613Z,79.40
2018-03-08T05:31:12.170Z,79.20
2018-03-08T05:33:38.671Z,79.10
2018-03-08T05:36:05.160Z,79.40
2018-03-08T05:38:31.694Z,81.00
2018-03-08T05:40:58.177Z,79.60
2018-03-08T05:43:25.409Z,79.90
2018-03-08T05:45:51.892Z,80.20
2018-03-08T05:48:18.420Z,80.60
2018-03-08T05:50:44.956Z,81.20
2018-03-08T05:53:11.457Z,81.40
2018-03-08T05:55:37.974Z,82.00
2018-03-08T05:58:04.480Z,81.80
2018-03-08T06:00:31.043Z,81.50
2018-03-08T06:02:57.595Z,81.20
2018-03-08T06:05:24.109Z,80.70
2018-03-08T06:07:50.587Z,80.70
2018-03-08T06:10:17.079Z,80.60
2018-03-08T06:12:43.568Z,81.50
2018-03-08T06:15:10.122Z,81.40
2018-03-08T06:17:36.582Z,81.70
2018-03-08T06:20:03.074Z,82.30
2018-03-08T06:22:29.681Z,82.30
2018-03-08T06:24:56.189Z,82.00
2018-03-08T06:27:22.705Z,82.00
2018-03-08T06:29:49.219Z,82.20
2018-03-08T06:32:15.852Z,82.10
2018-03-08T06:34:42.328Z,82.20
2018-03-08T06:37:09.599Z,82.50
2018-03-08T06:39:36.131Z,82.50
2018-03-08T06:42:02.615Z,82.70
2018-03-08T06:44:29.116Z,82.30
2018-03-08T06:46:56.428Z,82.20
2018-03-08T06:49:22.951Z,82.30
2018-03-08T06:51:49.434Z,82.00
2018-03-08T06:54:16.686Z,81.50
2018-03-08T06:56:43.155Z,81.50
2018-03-08T06:59:09.646Z,81.80
2018-03-08T07:01:36.149Z,81.80
2018-03-08T07:04:02.663Z,81.10
2018-03-08T07:06:29.210Z,81.10
2018-03-08T07:08:55.725Z,81.40
2018-03-08T07:11:22.256Z,81.50
2018-03-08T07:13:48.772Z,81.50
2018-03-08T07:16:16.014Z,80.60
2018-03-08T07:18:42.527Z,80.80
2018-03-08T07:21:09.023Z,80.40
2018-03-08T07:23:35.564Z,79.90
2018-03-08T07:26:02.090Z,79.20
2018-03-08T07:28:28.585Z,78.80
2018-03-08T07:30:55.121Z,78.80
2018-03-08T07:33:21.657Z,78.00
2018-03-08T07:35:48.173Z,76.70
2018-03-08T07:38:14.667Z,75.90
2018-03-08T07:40:41.187Z,75.00
2018-03-08T07:43:08.468Z,70.20
2018-03-08T07:45:34.999Z,70.00
2018-03-08T07:48:01.533Z,67.50
2018-03-08T07:50:28.045Z,66.50
2018-03-08T07:52:54.802Z,64.30
2018-03-08T07:55:22.015Z,58.80
2018-03-08T07:57:48.514Z,58.80
2018-03-08T08:00:15.104Z,57.40
2018-03-08T08:02:42.342Z,52.50
2018-03-08T08:05:20.902Z,52.10
2018-03-08T08:07:59.677Z,51.60
2018-03-08T08:10:26.217Z,52.60
2018-03-08T08:12:52.730Z,49.60
2018-03-08T08:15:19.226Z,48.80
2018-03-08T08:17:45.735Z,46.80
2018-03-08T08:20:12.252Z,46.50
2018-03-08T08:22:38.786Z,46.40
2018-03-08T08:25:05.348Z,43.40
2018-03-08T08:27:32.600Z,44.30
2018-03-08T08:29:59.090Z,44.30
2018-03-08T08:32:25.592Z,43.30
2018-03-08T08:34:52.112Z,42.70
2018-03-08T08:37:18.658Z,43.40
2018-03-08T08:39:45.155Z,44.30
2018-03-08T08:42:12.117Z,42.50
2018-03-08T08:44:39.372Z,41.50
2018-03-08T08:47:06.660Z,41.90
2018-03-08T08:49:33.252Z,41.80
2018-03-08T08:51:59.786Z,41.90
2018-03-08T08:54:26.300Z,41.30
2018-03-08T08:56:53.548Z,40.20
2018-03-08T08:59:20.092Z,40.10
2018-03-08T09:01:46.586Z,39.70
2018-03-08T09:04:13.104Z,40.70
2018-03-08T09:06:40.310Z,41.70
2018-03-08T09:09:06.915Z,41.70
2018-03-08T09:11:33.429Z,42.80
2018-03-08T09:14:00.660Z,39.20
2018-03-08T09:16:27.904Z,39.70
2018-03-08T09:18:54.398Z,39.70
2018-03-08T09:21:20.996Z,38.00
2018-03-08T09:23:47.526Z,39.00
2018-03-08T09:26:14.090Z,39.60
2018-03-08T09:28:40.586Z,40.00
2018-03-08T09:31:07.080Z,39.70
2018-03-08T09:33:33.616Z,40.60
2018-03-08T09:36:00.094Z,39.60
2018-03-08T09:38:26.592Z,38.30
2018-03-08T09:40:53.076Z,38.60
2018-03-08T09:43:20.310Z,35.60
2018-03-08T09:45:46.785Z,35.70
2018-03-08T09:48:13.310Z,36.00
2018-03-08T09:50:39.798Z,35.90
2018-03-08T09:53:06.306Z,35.50
2018-03-08T09:55:32.790Z,35.40
2018-03-08T09:57:59.393Z,34.00
2018-03-08T10:00:26.633Z,31.60
2018-03-08T10:02:53.146Z,32.50
2018-03-08T10:05:19.690Z,32.60
2018-03-08T10:07:46.152Z,32.60
2018-03-08T10:10:12.692Z,31.00
2018-03-08T10:12:39.268Z,31.00
2018-03-08T10:15:07.251Z,29.40
2018-03-08T10:17:33.744Z,28.90
2018-03-08T10:20:00.242Z,29.30
2018-03-08T10:22:26.861Z,30.10
2018-03-08T10:24:53.373Z,28.90
2018-03-08T10:27:20.678Z,29.10
2018-03-08T10:29:47.230Z,28.80
2018-03-08T10:32:13.757Z,28.80
2018-03-08T10:34:40.262Z,28.30
2018-03-08T10:37:06.754Z,28.60
2018-03-08T10:39:33.358Z,27.70
2018-03-08T10:41:59.859Z,27.70
2018-03-08T10:44:26.376Z,26.50
2018-03-08T10:46:52.890Z,26.70
2018-03-08T10:49:19.387Z,26.40
2018-03-08T10:51:45.877Z,27.20
2018-03-08T10:54:12.372Z,27.10
2018-03-08T10:56:38.877Z,27.10
2018-03-08T10:59:05.433Z,26.10
2018-03-08T11:01:32.739Z,24.80
2018-03-08T11:04:05.195Z,25.10
2018-03-08T11:06:31.710Z,26.40
2018-03-08T11:08:58.212Z,26.60
2018-03-08T11:11:24.740Z,26.10
2018-03-08T11:13:51.979Z,26.00
2018-03-08T11:16:19.192Z,24.40
2018-03-08T11:18:45.702Z,24.30
2018-03-08T11:21:12.216Z,24.60
2018-03-08T11:23:38.728Z,24.00
2018-03-08T11:26:05.217Z,23.40
2018-03-08T11:28:31.743Z,23.10
2018-03-08T11:30:58.283Z,23.50
2018-03-08T11:33:24.796Z,23.30
2018-03-08T11:35:51.331Z,24.30
2018-03-08T11:38:17.842Z,23.50
2018-03-08T11:40:44.365Z,23.80
2018-03-08T11:43:10.858Z,24.30
2018-03-08T11:45:37.371Z,24.30
2018-03-08T11:48:04.632Z,25.60
2018-03-08T11:50:31.133Z,25.50
2018-03-08T11:52:57.703Z,25.90
2018-03-08T11:55:24.210Z,26.60
2018-03-08T11:57:50.708Z,26.10
2018-03-08T12:00:17.256Z,25.70
2018-03-08T12:02:43.752Z,25.00
2018-03-08T12:05:10.247Z,24.40
2018-03-08T12:07:36.730Z,23.70
2018-03-08T12:10:03.206Z,24.00
2018-03-08T12:12:29.729Z,23.70
2018-03-08T12:14:56.202Z,23.60
2018-03-08T12:17:24.267Z,24.00
2018-03-08T12:19:51.521Z,24.40
2018-03-08T12:22:18.796Z,24.00
2018-03-08T12:24:45.296Z,23.90
2018-03-08T12:27:11.809Z,23.90
2018-03-08T12:29:39.099Z,24.60
2018-03-08T12:32:06.329Z,24.10
2018-03-08T12:34:32.848Z,24.10
2018-03-08T12:36:59.390Z,23.80
2018-03-08T12:39:26.672Z,24.10
2018-03-08T12:41:53.921Z,23.40
2018-03-08T12:44:20.427Z,23.40
2018-03-08T12:46:46.933Z,23.10
2018-03-08T12:49:13.476Z,23.20
2018-03-08T12:51:39.965Z,24.30
2018-03-08T12:54:06.456Z,24.80
2018-03-08T12:56:33.032Z,25.00
2018-03-08T12:58:59.616Z,24.80
2018-03-08T13:01:26.185Z,25.00
2018-03-08T13:03:52.668Z,24.90
2018-03-08T13:06:19.963Z,24.30
2018-03-08T13:08:46.484Z,24.20
2018-03-08T13:11:13.006Z,23.30
2018-03-08T13:13:39.665Z,23.60
2018-03-08T13:16:06.176Z,24.00
2018-03-08T13:18:32.651Z,26.30
2018-03-08T13:20:59.215Z,27.30
2018-03-08T13:23:25.713Z,28.00
2018-03-08T13:25:52.240Z,28.50
2018-03-08T13:28:18.750Z,27.70
2018-03-08T13:30:45.300Z,26.90
2018-03-08T13:33:11.838Z,25.80
2018-03-08T13:35:38.315Z,26.70
2018-03-08T13:38:04.814Z,28.30
2018-03-08T13:40:31.349Z,29.70
2018-03-08T13:42:57.893Z,30.70
2018-03-08T13:45:24.432Z,32.10
2018-03-08T13:47:51.674Z,32.80
2018-03-08T13:50:18.208Z,32.90
2018-03-08T13:52:44.713Z,33.80
2018-03-08T13:55:11.305Z,32.60
2018-03-08T13:57:37.791Z,30.80
2018-03-08T14:00:04.277Z,29.20
2018-03-08T14:02:30.752Z,27.40
2018-03-08T14:04:57.280Z,27.00
2018-03-08T14:07:23.851Z,27.10
2018-03-08T14:09:50.366Z,28.10
2018-03-08T14:12:16.897Z,29.70
2018-03-08T14:14:44.164Z,33.20
2018-03-08T14:17:12.014Z,33.00
2018-03-08T14:19:38.541Z,33.60
2018-03-08T14:22:05.136Z,31.90
2018-03-08T14:24:31.656Z,32.60
2018-03-08T14:26:58.180Z,35.40
2018-03-08T14:29:24.663Z,35.20
2018-03-08T14:31:51.321Z,36.60
2018-03-08T14:34:17.835Z,37.40
2018-03-08T14:36:44.349Z,38.00
2018-03-08T14:39:10.874Z,38.50
2018-03-08T14:41:37.420Z,39.40
2018-03-08T14:44:03.944Z,39.10
2018-03-08T14:46:30.423Z,38.40
2018-03-08T14:48:56.969Z,36.50
2018-03-08T14:51:24.217Z,36.40
2018-03-08T14:53:51.487Z,36.20
2018-03-08T14:56:18.006Z,36.40
2018-03-08T14:58:44.477Z,36.60
2018-03-08T15:01:10.977Z,38.20
2018-03-08T15:03:38.261Z,40.30
2018-03-08T15:06:04.809Z,40.40
2018-03-08T15:08:31.321Z,41.60
2018-03-08T15:10:57.873Z,41.80
2018-03-08T15:13:24.385Z,42.50
2018-03-08T15:15:50.980Z,42.60
2018-03-08T15:18:17.463Z,42.90
2018-03-08T15:20:44.180Z,43.40
2018-03-08T15:23:10.889Z,43.60
2018-03-08T15:25:37.434Z,42.90
2018-03-08T15:28:04.121Z,43.70
2018-03-08T15:30:30.879Z,43.20
2018-03-08T15:32:57.526Z,43.20
2018-03-08T15:35:24.093Z,43.10
2018-03-08T15:37:50.577Z,43.70
2018-03-08T15:40:18.028Z,44.20
2018-03-08T15:42:44.633Z,44.60
2018-03-08T15:45:11.309Z,44.40
2018-03-08T15:47:37.882Z,44.60
2018-03-08T15:50:04.582Z,45.00
2018-03-08T15:52:31.189Z,45.40
2018-03-08T15:54:57.816Z,45.70
2018-03-08T15:57:25.844Z,46.00
2018-03-08T16:00:08.655Z,45.90
2018-03-08T16:02:38.100Z,46.50
2018-03-08T16:05:04.865Z,46.40
2018-03-08T16:08:14.123Z,47.30
2018-03-08T16:10:40.810Z,47.20
2018-03-08T16:13:07.559Z,48.40
2018-03-08T16:15:34.196Z,48.40
2018-03-08T16:18:00.886Z,49.40
2018-03-08T16:20:27.581Z,48.80
2018-03-08T16:22:54.319Z,48.50
2018-03-08T16:25:20.924Z,48.80
2018-03-08T16:27:47.698Z,51.00
2018-03-08T16:30:14.347Z,51.30
2018-03-08T16:32:40.975Z,51.90
2018-03-08T16:35:07.654Z,52.50
2018-03-08T16:37:35.502Z,52.80
2018-03-08T16:40:02.167Z,52.60
2018-03-08T16:42:29.004Z,53.00
2018-03-08T16:44:55.699Z,54.10
2018-03-08T16:47:22.442Z,54.50
2018-03-08T16:49:49.152Z,55.40
2018-03-08T16:52:15.821Z,56.20
2018-03-08T16:54:42.458Z,56.50
2018-03-08T16:57:12.711Z,56.80
2018-03-08T16:59:44.778Z,57.40
2018-03-08T17:02:11.397Z,58.10
2018-03-08T17:04:38.010Z,58.20
2018-03-08T17:07:04.665Z,58.50
2018-03-08T17:09:31.327Z,59.10
2018-03-08T17:11:58.642Z,59.40
2018-03-08T17:14:25.875Z,59.50
2018-03-08T17:16:52.509Z,59.50
2018-03-08T17:19:19.217Z,60.10
2018-03-08T17:21:46.468Z,61.00
2018-03-08T17:24:14.398Z,61.30
2018-03-08T17:26:40.924Z,61.30
2018-03-08T17:29:07.422Z,61.60
2018-03-08T17:31:33.929Z,61.60
2018-03-08T17:34:00.443Z,61.80
2018-03-08T17:36:26.962Z,62.60
2018-03-08T17:38:53.811Z,62.80
2018-03-08T17:41:23.198Z,62.60
2018-03-08T17:43:49.721Z,63.70
2018-03-08T17:46:16.291Z,64.00
2018-03-08T17:48:42.997Z,63.80
2018-03-08T17:51:10.123Z,64.00
2018-03-08T17:53:37.984Z,64.00
2018-03-08T17:56:04.511Z,64.70
2018-03-08T17:58:31.058Z,64.70
2018-03-08T18:00:57.887Z,65.30
2018-03-08T18:03:25.220Z,65.80
2018-03-08T18:05:51.756Z,65.80
2018-03-08T18:08:18.427Z,66.60
2018-03-08T18:10:45.238Z,66.70
2018-03-08T18:13:13.821Z,67.10
2018-03-08T18:15:40.602Z,67.20
2018-03-08T18:18:07.107Z,66.80
2018-03-08T18:20:33.620Z,67.30
2018-03-08T18:23:01.331Z,67.20
2018-03-08T18:25:28.778Z,67.20
2018-03-08T18:27:55.282Z,67.30
2018-03-08T18:30:21.935Z,66.80
2018-03-08T18:32:48.580Z,67.50
2018-03-08T18:35:15.115Z,68.30
2018-03-08T18:37:41.714Z,67.50
2018-03-08T18:40:08.321Z,68.00
2018-03-08T18:42:35.545Z,69.00
2018-03-08T18:45:02.021Z,69.20
2018-03-08T18:47:28.544Z,69.50
2018-03-08T18:49:55.841Z,70.60
2018-03-08T18:52:22.348Z,70.50
2018-03-08T18:54:48.833Z,69.50
2018-03-08T18:57:16.037Z,69.20
2018-03-08T18:59:42.592Z,68.80
2018-03-08T19:02:09.368Z,69.50
2018-03-08T19:04:35.914Z,70.00
2018-03-08T19:07:02.414Z,70.20
2018-03-08T19:09:28.918Z,70.30
2018-03-08T19:11:55.443Z,70.30
2018-03-08T19:14:22.668Z,69.70
2018-03-08T19:16:49.150Z,69.60
2018-03-08T19:19:15.618Z,69.50
2018-03-08T19:21:42.144Z,70.10
2018-03-08T19:24:08.650Z,70.20
2018-03-08T19:26:35.238Z,70.50
2018-03-08T19:29:01.747Z,70.50
2018-03-08T19:31:28.244Z,71.60
2018-03-08T19:33:54.755Z,71.60
2018-03-08T19:36:22.002Z,72.00
2018-03-08T19:38:48.526Z,72.00
2018-03-08T19:41:15.041Z,71.80
2018-03-08T19:43:41.558Z,71.40
2018-03-08T19:46:08.115Z,71.40
2018-03-08T19:48:34.593Z,71.50
2018-03-08T19:51:01.212Z,71.30
2018-03-08T19:53:27.699Z,71.10
2018-03-08T19:55:54.204Z,71.70
2018-03-08T19:58:21.469Z,72.60
2018-03-08T20:00:47.971Z,72.60
2018-03-08T20:03:14.488Z,72.80
2018-03-08T20:05:40.987Z,72.60
2018-03-08T20:08:07.493Z,72.00
2018-03-08T20:10:34.715Z,73.10
2018-03-08T20:13:01.263Z,73.00
2018-03-08T20:15:27.766Z,72.60
2018-03-08T20:17:54.251Z,72.70
2018-03-08T20:20:21.522Z,73.30
2018-03-08T20:22:48.043Z,73.30
2018-03-08T20:25:15.265Z,72.60
2018-03-08T20:27:41.830Z,72.60
2018-03-08T20:30:09.150Z,73.30
2018-03-08T20:32:35.633Z,74.10
2018-03-08T20:35:02.857Z,73.10
2018-03-08T20:37:30.097Z,74.60
2018-03-08T20:39:56.728Z,74.50
2018-03-08T20:42:23.239Z,74.60
2018-03-08T20:44:49.791Z,74.10
2018-03-08T20:47:16.289Z,73.50
2018-03-08T20:49:42.792Z,74.40
2018-03-08T20:52:09.276Z,76.00
2018-03-08T20:54:36.697Z,76.60
2018-03-08T20:57:03.222Z,76.70
2018-03-08T20:59:41.134Z,75.80
2018-03-08T21:02:07.668Z,75.80
2018-03-08T21:04:34.154Z,76.00
2018-03-08T21:07:00.639Z,76.40
2018-03-08T21:09:31.221Z,75.70
2018-03-08T21:11:57.821Z,75.70
2018-03-08T21:14:24.324Z,77.30
2018-03-08T21:16:50.824Z,77.20
2018-03-08T21:19:22.760Z,77.00
2018-03-08T21:21:49.293Z,76.90
2018-03-08T21:24:15.882Z,77.10
2018-03-08T21:26:42.401Z,76.10
2018-03-08T21:29:08.904Z,75.70
2018-03-08T21:31:35.439Z,76.20
2018-03-08T21:34:01.942Z,77.30
2018-03-08T21:36:28.442Z,76.80
2018-03-08T21:38:55.013Z,75.70
2018-03-08T21:41:21.510Z,76.20
2018-03-08T21:43:47.982Z,75.40
2018-03-08T21:46:15.223Z,78.20
2018-03-08T21:48:41.747Z,78.00
2018-03-08T21:51:08.267Z,76.70
2018-03-08T21:53:35.490Z,77.70
2018-03-08T21:56:02.011Z,77.50
2018-03-08T21:58:28.540Z,77.80
2018-03-08T22:00:55.877Z,78.60
2018-03-08T22:03:23.110Z,79.60
2018-03-08T22:05:49.624Z,79.80
2018-03-08T22:08:16.112Z,79.10
2018-03-08T22:10:42.639Z,79.10
2018-03-08T22:13:09.921Z,78.50
2018-03-08T22:15:36.435Z,77.50
2018-03-08T22:18:03.664Z,76.90
2018-03-08T22:20:30.149Z,76.80
2018-03-08T22:22:56.626Z,77.70
2018-03-08T22:25:23.161Z,78.20
2018-03-08T22:27:49.672Z,77.50
2018-03-08T22:30:16.186Z,77.20
2018-03-08T22:32:43.604Z,77.80
2018-03-08T22:35:10.120Z,79.00
2018-03-08T22:37:36.623Z,79.10
2018-03-08T22:40:03.172Z,78.50
2018-03-08T22:42:29.683Z,78.70
2018-03-08T22:44:56.205Z,78.80
2018-03-08T22:47:22.896Z,79.00
2018-03-08T22:49:49.388Z,78.50
2018-03-08T22:52:15.932Z,79.00
2018-03-08T22:54:42.415Z,79.40
2018-03-08T22:57:09.009Z,80.10
2018-03-08T22:59:35.549Z,80.40
2018-03-08T23:02:09.669Z,81.00
2018-03-08T23:04:36.178Z,81.10
2018-03-08T23:07:03.510Z,81.50
2018-03-08T23:09:30.768Z,81.20
2018-03-08T23:11:57.418Z,81.40
2018-03-08T23:14:23.951Z,82.00
2018-03-08T23:16:50.480Z,81.30
2018-03-08T23:19:16.969Z,81.50
2018-03-08T23:21:43.506Z,82.30
2018-03-08T23:24:10.743Z,81.70
2018-03-08T23:26:37.311Z,81.80
2018-03-08T23:29:03.823Z,82.40
2018-03-08T23:31:31.046Z,81.60
2018-03-08T23:33:57.541Z,81.10
2018-03-08T23:36:24.067Z,80.50
2018-03-08T23:38:50.562Z,81.30
2018-03-08T23:41:17.123Z,81.80
2018-03-08T23:43:43.599Z,82.00
2018-03-08T23:46:10.103Z,81.00
2018-03-08T23:48:36.596Z,81.10
2018-03-08T23:51:03.149Z,81.90
2018-03-08T23:53:29.679Z,81.30
2018-03-08T23:55:56.185Z,81.50
2018-03-08T23:58:22.673Z,81.70
